sensor_id;sensor_type;location;lat;lon;timestamp;temperature;humidity
31687;DHT22;18285;51.330;4.946;2024-01-15T00:16:44;25.70;28.00
31687;DHT22;18285;51.330;4.946;2024-01-15T00:40:54;25.80;27.60
31687;DHT22;18285;51.330;4.946;2024-01-15T01:05:05;26.00;27.30
31687;DHT22;18285;51.330;4.946;2024-01-15T01:29:16;26.00;27.30
31687;DHT22;18285;51.330;4.946;2024-01-15T01:53:27;26.00;27.00
31687;DHT22;18285;51.330;4.946;2024-01-15T02:18:01;25.90;27.10
31687;DHT22;18285;51.330;4.946;2024-01-15T02:42:13;26.00;26.60
31687;DHT22;18285;51.330;4.946;2024-01-15T03:06:23;25.90;26.60
31687;DHT22;18285;51.330;4.946;2024-01-15T03:30:34;25.80;26.80
31687;DHT22;18285;51.330;4.946;2024-01-15T03:54:45;25.70;26.60
31687;DHT22;18285;51.330;4.946;2024-01-15T04:18:55;25.70;26.60
31687;DHT22;18285;51.330;4.946;2024-01-15T04:43:06;25.60;26.60
31687;DHT22;18285;51.330;4.946;2024-01-15T05:07:16;25.50;26.60
31687;DHT22;18285;51.330;4.946;2024-01-15T05:31:27;25.40;26.50
31687;DHT22;18285;51.330;4.946;2024-01-15T05:55:38;25.30;26.50
31687;DHT22;18285;51.330;4.946;2024-01-15T06:19:48;25.20;26.50
31687;DHT22;18285;51.330;4.946;2024-01-15T06:43:59;25.00;26.10
31687;DHT22;18285;51.330;4.946;2024-01-15T07:08:10;25.00;26.60
31687;DHT22;18285;51.330;4.946;2024-01-15T07:32:20;24.70;27.70
31687;DHT22;18285;51.330;4.946;2024-01-15T07:56:31;24.70;27.60
31687;DHT22;18285;51.330;4.946;2024-01-15T08:20:42;24.60;27.80
31687;DHT22;18285;51.330;4.946;2024-01-15T08:44:53;24.50;27.60
31687;DHT22;18285;51.330;4.946;2024-01-15T09:09:03;24.40;27.80
31687;DHT22;18285;51.330;4.946;2024-01-15T09:33:14;24.40;27.90
31687;DHT22;18285;51.330;4.946;2024-01-15T10:21:39;24.30;27.60
31687;DHT22;18285;51.330;4.946;2024-01-15T10:45:51;24.20;27.70
31687;DHT22;18285;51.330;4.946;2024-01-15T11:10:04;24.20;27.60
31687;DHT22;18285;51.330;4.946;2024-01-15T11:34:14;24.10;27.60
31687;DHT22;18285;51.330;4.946;2024-01-15T11:58:25;24.00;27.70
31687;DHT22;18285;51.330;4.946;2024-01-15T12:22:36;24.00;27.80
31687;DHT22;18285;51.330;4.946;2024-01-15T12:46:48;24.00;27.50
31687;DHT22;18285;51.330;4.946;2024-01-15T13:10:58;23.80;27.80
31687;DHT22;18285;51.330;4.946;2024-01-15T13:35:12;23.90;27.70
31687;DHT22;18285;51.330;4.946;2024-01-15T13:59:23;23.90;28.10
31687;DHT22;18285;51.330;4.946;2024-01-15T14:23:34;23.80;28.00
31687;DHT22;18285;51.330;4.946;2024-01-15T14:47:45;23.70;28.20
31687;DHT22;18285;51.330;4.946;2024-01-15T15:11:55;23.70;27.80
31687;DHT22;18285;51.330;4.946;2024-01-15T15:36:06;23.40;28.10
31687;DHT22;18285;51.330;4.946;2024-01-15T16:00:17;23.60;28.00
31687;DHT22;18285;51.330;4.946;2024-01-15T16:24:28;23.50;28.60
31687;DHT22;18285;51.330;4.946;2024-01-15T16:48:38;23.50;29.90
31687;DHT22;18285;51.330;4.946;2024-01-15T17:12:49;23.60;33.30
31687;DHT22;18285;51.330;4.946;2024-01-15T17:37:00;23.50;30.00
31687;DHT22;18285;51.330;4.946;2024-01-15T18:01:11;23.40;31.50
31687;DHT22;18285;51.330;4.946;2024-01-15T18:25:21;23.40;31.90
31687;DHT22;18285;51.330;4.946;2024-01-15T18:49:32;23.10;32.80
31687;DHT22;18285;51.330;4.946;2024-01-15T19:13:43;23.10;32.40
31687;DHT22;18285;51.330;4.946;2024-01-15T19:37:54;23.30;32.40
31687;DHT22;18285;51.330;4.946;2024-01-15T20:02:05;24.00;31.40
31687;DHT22;18285;51.330;4.946;2024-01-15T20:26:15;24.20;29.30
31687;DHT22;18285;51.330;4.946;2024-01-15T20:50:26;24.30;29.10
31687;DHT22;18285;51.330;4.946;2024-01-15T21:14:37;24.70;28.60
31687;DHT22;18285;51.330;4.946;2024-01-15T21:38:48;25.30;28.30
31687;DHT22;18285;51.330;4.946;2024-01-15T22:02:59;25.80;27.80
31687;DHT22;18285;51.330;4.946;2024-01-15T22:27:10;26.20;27.30
31687;DHT22;18285;51.330;4.946;2024-01-15T22:51:20;26.40;27.00
31687;DHT22;18285;51.330;4.946;2024-01-15T23:15:31;26.60;26.90
31687;DHT22;18285;51.330;4.946;2024-01-15T23:39:42;26.60;26.60
